Time;durP1;ratioP1;P1;durP2;ratioP2;P2;SDS_P1;SDS_P2;PMS_P1;PMS_P2;Temp;Humidity;BMP_temperature;BMP_pressure;BME280_temperature;BME280_humidity;BME280_pressure;Samples;Min_cycle;Max_cycle;Signal;HPM_P1;HPM_P2
2022/07/27 00:00:32;;;;;;;2.88;1.40;;;15.50;70.00;;;;;;5092861;28;20081;-38
2022/07/27 00:02:57;;;;;;;2.55;1.20;;;15.50;70.20;;;;;;5093002;28;20039;-39
2022/07/27 00:05:23;;;;;;;2.80;1.30;;;15.50;70.30;;;;;;5093125;28;20055;-38
2022/07/27 00:07:49;;;;;;;2.53;0.90;;;15.50;70.40;;;;;;5093217;28;20017;-39
2022/07/27 00:10:15;;;;;;;2.08;0.73;;;15.50;70.50;;;;;;5093133;28;20077;-39
2022/07/27 00:12:41;;;;;;;1.50;1.00;;;15.50;70.50;;;;;;5091787;28;20379;-40
2022/07/27 00:15:08;;;;;;;3.78;1.00;;;15.40;70.70;;;;;;5092939;28;20021;-38
2022/07/27 00:17:34;;;;;;;2.08;0.88;;;15.50;70.70;;;;;;5092630;28;20024;-38
2022/07/27 00:20:00;;;;;;;4.93;1.75;;;15.50;70.70;;;;;;5092756;28;20084;-39
2022/07/27 00:22:25;;;;;;;2.67;0.90;;;15.60;70.60;;;;;;5093074;28;20499;-39
2022/07/27 00:24:51;;;;;;;3.20;0.95;;;15.60;70.60;;;;;;5092729;28;20073;-38
2022/07/27 00:27:17;;;;;;;2.33;1.30;;;15.60;70.50;;;;;;5092533;28;20039;-39
2022/07/27 00:29:44;;;;;;;4.22;1.23;;;15.50;70.70;;;;;;5092622;28;20024;-40
2022/07/27 00:32:10;;;;;;;2.83;0.88;;;15.60;70.60;;;;;;5093595;28;20024;-39
2022/07/27 00:34:36;;;;;;;5.75;1.20;;;15.60;70.60;;;;;;5096444;28;20077;-38
2022/07/27 00:37:02;;;;;;;3.60;0.93;;;15.60;70.80;;;;;;5095201;28;20024;-38
2022/07/27 00:39:28;;;;;;;1.13;0.95;;;15.50;71.90;;;;;;5096301;28;20387;-40
2022/07/27 00:41:53;;;;;;;2.15;0.90;;;15.60;72.20;;;;;;5096357;28;20024;-39
2022/07/27 00:44:30;;;;;;;2.35;1.20;;;15.50;72.40;;;;;;5096397;28;20486;-39
2022/07/27 00:46:57;;;;;;;5.10;1.02;;;15.40;73.00;;;;;;5096098;28;20043;-38
2022/07/27 00:49:25;;;;;;;1.67;0.93;;;15.30;73.20;;;;;;5096883;28;20031;-38
2022/07/27 00:51:52;;;;;;;4.38;1.33;;;15.30;73.70;;;;;;5097229;28;20357;-38
2022/07/27 00:54:19;;;;;;;1.83;0.95;;;15.30;73.70;;;;;;5096941;28;20016;-40
2022/07/27 00:56:45;;;;;;;4.05;1.08;;;15.10;74.30;;;;;;5096461;28;20463;-40
2022/07/27 00:59:11;;;;;;;10.00;1.50;;;15.00;75.00;;;;;;5096303;28;20031;-39
2022/07/27 01:01:37;;;;;;;6.13;1.23;;;14.90;75.50;;;;;;5095850;28;20028;-40
2022/07/27 01:04:04;;;;;;;2.80;1.15;;;15.00;75.70;;;;;;5095741;28;20098;-38
2022/07/27 01:06:30;;;;;;;6.82;1.35;;;14.90;76.00;;;;;;5095642;28;20078;-39
2022/07/27 01:11:42;;;;;;;5.72;1.35;;;15.00;75.80;;;;;;5095831;28;20541;-39
2022/07/27 01:14:08;;;;;;;0.88;0.70;;;15.00;75.90;;;;;;5095738;28;20024;-39
2022/07/27 01:16:33;;;;;;;8.00;2.30;;;15.00;76.20;;;;;;5095549;28;20123;-39
2022/07/27 01:18:59;;;;;;;9.05;1.60;;;15.10;75.50;;;;;;5095517;28;20523;-39
2022/07/27 01:21:25;;;;;;;2.65;1.42;;;15.20;75.10;;;;;;5094075;28;20046;-40
2022/07/27 01:23:50;;;;;;;4.47;1.80;;;15.20;75.20;;;;;;5095407;28;20024;-40
2022/07/27 01:26:16;;;;;;;1.63;0.88;;;15.20;74.90;;;;;;5095432;28;20068;-38
2022/07/27 01:28:43;;;;;;;4.45;1.42;;;15.20;75.20;;;;;;5095373;28;20383;-40
2022/07/27 01:31:09;;;;;;;3.22;1.45;;;15.20;75.20;;;;;;5077204;28;20062;-39
2022/07/27 01:33:34;;;;;;;4.53;1.45;;;15.20;75.20;;;;;;5095499;28;20020;-38
2022/07/27 01:36:00;;;;;;;3.50;1.45;;;15.10;74.90;;;;;;5095918;28;20031;-39
2022/07/27 01:38:26;;;;;;;4.40;1.48;;;15.10;75.10;;;;;;5095223;28;20535;-40
2022/07/27 01:40:53;;;;;;;3.25;1.58;;;15.00;75.10;;;;;;5095939;28;20023;-37
2022/07/27 01:43:20;;;;;;;4.82;1.63;;;15.10;75.20;;;;;;5094406;28;20035;-38
2022/07/27 01:45:46;;;;;;;5.95;1.65;;;15.00;75.40;;;;;;5094054;28;20046;-40
2022/07/27 01:48:12;;;;;;;7.07;1.63;;;15.00;75.50;;;;;;5095787;28;20031;-39
2022/07/27 01:50:39;;;;;;;9.30;2.08;;;14.80;76.20;;;;;;5094183;28;20035;-38
2022/07/27 01:53:05;;;;;;;7.65;1.55;;;14.80;76.30;;;;;;5094544;28;20494;-39
2022/07/27 01:55:30;;;;;;;3.33;1.48;;;14.70;76.70;;;;;;5095524;28;20027;-38
2022/07/27 01:57:56;;;;;;;3.70;1.63;;;14.50;77.60;;;;;;5096238;28;20056;-38
2022/07/27 02:00:22;;;;;;;3.80;2.08;;;14.30;78.40;;;;;;5094981;28;20028;-38
2022/07/27 02:02:47;;;;;;;3.65;1.75;;;14.30;78.50;;;;;;5095131;28;20031;-39
2022/07/27 02:05:13;;;;;;;3.20;2.13;;;14.30;78.60;;;;;;5095025;28;20059;-39
2022/07/27 02:07:41;;;;;;;5.72;2.00;;;14.30;78.90;;;;;;5095318;28;20016;-39
2022/07/27 02:10:08;;;;;;;5.35;3.10;;;14.10;79.50;;;;;;5095224;28;20020;-40
2022/07/27 02:12:34;;;;;;;6.68;2.10;;;14.20;79.50;;;;;;5094537;28;20028;-39
2022/07/27 02:15:01;;;;;;;5.72;1.98;;;14.00;79.80;;;;;;5094612;28;20020;-39
2022/07/27 02:17:27;;;;;;;6.20;2.17;;;14.10;79.80;;;;;;5094920;28;20237;-39
2022/07/27 02:19:52;;;;;;;2.47;1.38;;;14.10;79.80;;;;;;5094991;28;20047;-39
2022/07/27 02:22:18;;;;;;;13.82;2.10;;;14.10;79.80;;;;;;5094595;28;20074;-39
2022/07/27 02:24:43;;;;;;;6.60;2.05;;;14.10;79.70;;;;;;5094442;28;20095;-38
2022/07/27 02:27:09;;;;;;;3.53;2.15;;;14.10;80.30;;;;;;5094410;28;20444;-40
2022/07/27 02:29:35;;;;;;;4.03;1.70;;;14.10;80.10;;;;;;5094244;28;20079;-38
2022/07/27 02:32:00;;;;;;;8.02;1.95;;;14.10;80.30;;;;;;5094472;28;20023;-39
2022/07/27 02:34:26;;;;;;;4.93;1.65;;;14.00;80.50;;;;;;5094474;28;20024;-38
2022/07/27 02:36:52;;;;;;;7.40;2.13;;;14.10;80.40;;;;;;5095065;28;20051;-38
2022/07/27 02:39:17;;;;;;;6.65;1.98;;;14.10;80.10;;;;;;5094135;28;20505;-39
2022/07/27 02:41:45;;;;;;;6.03;2.50;;;14.00;80.00;;;;;;5094414;28;20059;-39
2022/07/27 02:44:13;;;;;;;4.60;1.67;;;14.00;80.20;;;;;;5094018;28;20028;-40
2022/07/27 02:46:39;;;;;;;4.57;1.90;;;14.00;80.50;;;;;;5092482;28;20521;-38
2022/07/27 02:49:05;;;;;;;8.55;2.40;;;14.10;80.30;;;;;;5094168;28;20095;-39
2022/07/27 02:51:32;;;;;;;4.90;2.33;;;14.10;80.10;;;;;;5092579;28;20066;-40
2022/07/27 02:53:58;;;;;;;6.40;2.10;;;14.10;80.30;;;;;;5094190;28;20157;-39
2022/07/27 02:56:24;;;;;;;3.05;1.60;;;14.10;80.00;;;;;;5093347;28;20494;-40
2022/07/27 02:58:49;;;;;;;7.55;1.88;;;14.20;79.70;;;;;;5094104;28;20024;-40
2022/07/27 03:01:15;;;;;;;3.92;2.25;;;14.30;79.10;;;;;;5092696;28;20043;-38
2022/07/27 03:03:41;;;;;;;7.07;2.70;;;14.20;79.50;;;;;;5092467;28;20099;-38
2022/07/27 03:06:07;;;;;;;2.65;1.63;;;14.20;79.70;;;;;;5092463;28;20061;-40
2022/07/27 03:08:34;;;;;;;9.95;2.88;;;14.20;80.20;;;;;;5094008;28;20024;-39
2022/07/27 03:11:00;;;;;;;4.15;2.13;;;14.30;79.10;;;;;;5093682;28;20028;-39
2022/07/27 03:13:27;;;;;;;3.30;2.13;;;14.20;79.10;;;;;;5093923;28;20020;-38
2022/07/27 03:15:53;;;;;;;5.97;2.03;;;14.10;79.70;;;;;;5093719;28;20035;-39
2022/07/27 03:18:20;;;;;;;3.63;2.30;;;14.00;80.20;;;;;;5093794;28;20082;-39
2022/07/27 03:20:46;;;;;;;3.75;1.90;;;13.90;80.60;;;;;;5093700;28;20047;-39
2022/07/27 03:23:11;;;;;;;7.25;2.63;;;13.80;80.60;;;;;;5093725;28;20024;-39
2022/07/27 03:25:37;;;;;;;6.68;2.95;;;13.80;81.20;;;;;;5093317;28;20472;-39
2022/07/27 03:28:03;;;;;;;6.10;2.70;;;13.80;80.30;;;;;;5093792;28;20024;-39
2022/07/27 19:50:22;;;;;;;5.07;1.35;;;17.90;56.20;;;;;;5090753;28;20415;-40
2022/07/27 19:52:48;;;;;;;1.23;0.90;;;17.90;56.50;;;;;;5090543;28;20024;-39
2022/07/27 19:55:14;;;;;;;6.35;1.00;;;17.90;56.40;;;;;;5090053;28;20043;-41
2022/07/27 19:57:40;;;;;;;8.07;2.38;;;17.90;56.40;;;;;;5090877;28;20036;-39
2022/07/27 20:00:07;;;;;;;3.75;2.03;;;17.80;56.70;;;;;;5089418;28;20031;-40
2022/07/27 20:02:33;;;;;;;4.32;1.48;;;17.80;56.90;;;;;;5090068;28;20035;-38
2022/07/27 20:04:59;;;;;;;4.10;2.42;;;17.80;57.10;;;;;;5090681;28;20020;-39
2022/07/27 20:07:25;;;;;;;4.15;1.50;;;17.80;57.10;;;;;;5090792;28;20028;-40
2022/07/27 20:09:50;;;;;;;7.68;1.40;;;17.80;57.20;;;;;;5088540;28;20032;-39
2022/07/27 20:12:16;;;;;;;1.98;1.05;;;17.70;57.40;;;;;;5090327;28;20357;-39
2022/07/27 20:14:42;;;;;;;4.38;1.30;;;17.70;57.40;;;;;;5089937;28;20020;-39
2022/07/27 20:17:07;;;;;;;3.97;1.50;;;17.60;57.50;;;;;;5090100;28;20056;-38
2022/07/27 20:19:33;;;;;;;4.15;1.13;;;17.60;57.50;;;;;;5091036;28;20099;-39
2022/07/27 20:22:00;;;;;;;4.22;1.17;;;17.60;57.70;;;;;;5090108;28;20384;-39
2022/07/27 20:24:26;;;;;;;2.20;1.17;;;17.50;57.80;;;;;;5092377;28;20089;-39
2022/07/27 20:26:53;;;;;;;8.18;1.40;;;17.50;57.80;;;;;;5089964;28;20024;-38
2022/07/27 20:29:19;;;;;;;2.78;1.52;;;17.50;57.90;;;;;;5089986;28;20028;-39
2022/07/27 20:31:45;;;;;;;5.57;1.40;;;17.40;57.90;;;;;;5089878;28;20479;-40
2022/07/27 20:34:11;;;;;;;2.97;1.63;;;17.40;58.00;;;;;;5089876;28;20017;-40
2022/07/27 20:36:36;;;;;;;2.75;1.23;;;17.40;58.20;;;;;;5090129;28;20021;-45
2022/07/27 20:39:05;;;;;;;8.57;1.40;;;17.30;58.30;;;;;;5089420;28;20560;-39
2022/07/27 20:41:31;;;;;;;1.00;0.98;;;17.30;58.40;;;;;;5090331;28;20472;-39
2022/07/27 20:43:57;;;;;;;7.85;1.10;;;17.30;58.60;;;;;;5089643;28;20090;-39
2022/07/27 20:46:23;;;;;;;11.65;2.03;;;17.30;58.80;;;;;;5089452;28;20066;-39
2022/07/27 20:48:49;;;;;;;1.85;1.25;;;17.20;58.90;;;;;;5090813;28;20045;-39
2022/07/27 20:51:14;;;;;;;1.60;0.80;;;17.10;59.00;;;;;;5088465;28;20027;-42
2022/07/27 20:53:40;;;;;;;5.97;1.75;;;17.10;59.30;;;;;;5089831;28;20048;-41
2022/07/27 20:56:06;;;;;;;5.05;1.20;;;17.10;59.30;;;;;;5089017;28;20039;-39
2022/07/27 20:58:33;;;;;;;5.35;0.93;;;17.00;59.50;;;;;;5087737;28;20027;-39
2022/07/27 21:00:58;;;;;;;6.88;2.05;;;16.90;59.70;;;;;;5080113;28;20025;-39
2022/07/27 21:03:24;;;;;;;3.08;1.13;;;16.90;59.90;;;;;;5075544;28;20366;-39
2022/07/27 21:05:50;;;;;;;7.15;1.20;;;16.80;60.10;;;;;;5074303;28;20104;-39
2022/07/27 21:08:15;;;;;;;1.92;1.33;;;16.80;60.10;;;;;;5074888;28;20036;-38
2022/07/27 21:10:41;;;;;;;6.47;1.33;;;16.80;60.20;;;;;;5076209;28;20022;-38
2022/07/27 21:13:07;;;;;;;3.40;1.20;;;16.80;60.20;;;;;;5075261;28;20380;-39
2022/07/27 21:15:32;;;;;;;3.42;2.22;;;16.80;60.10;;;;;;5075532;28;20066;-39
2022/07/27 21:17:58;;;;;;;2.10;1.00;;;16.80;60.10;;;;;;5073977;28;20445;-39
2022/07/27 21:20:25;;;;;;;3.38;1.05;;;16.70;60.00;;;;;;5075249;28;20081;-42
2022/07/27 21:24:13;;;;;;;6.32;1.48;;;16.70;60.00;;;;;;5080561;28;20020;-38
2022/07/27 21:25:41;;;;;;;5.32;1.33;;;16.70;59.90;;;;;;5075171;28;20078;-39
2022/07/27 21:28:06;;;;;;;3.67;1.23;;;16.70;60.00;;;;;;5075602;28;20024;-38
2022/07/27 21:30:32;;;;;;;2.13;1.52;;;16.60;59.90;;;;;;5075192;28;20028;-39
2022/07/27 21:32:58;;;;;;;7.43;0.80;;;16.50;59.90;;;;;;5075385;28;20059;-38
2022/07/27 21:35:24;;;;;;;1.30;1.20;;;16.50;59.80;;;;;;5075358;28;20024;-38
2022/07/27 21:37:49;;;;;;;5.95;1.42;;;16.50;59.70;;;;;;5075086;28;20021;-39
2022/07/27 21:40:15;;;;;;;8.35;1.77;;;16.40;59.80;;;;;;5075434;28;20021;-38
2022/07/27 21:42:41;;;;;;;3.47;1.20;;;16.40;59.90;;;;;;5075286;28;20028;-39
2022/07/27 21:45:07;;;;;;;2.95;1.30;;;16.40;59.80;;;;;;5075464;28;20032;-39
2022/07/27 21:47:33;;;;;;;6.85;1.40;;;16.30;60.00;;;;;;5075166;28;20392;-38
2022/07/27 21:49:58;;;;;;;2.00;0.82;;;16.30;60.20;;;;;;5075240;28;20086;-39
2022/07/27 21:52:24;;;;;;;6.03;1.63;;;16.20;60.40;;;;;;5075434;28;20131;-38
2022/07/27 21:54:50;;;;;;;1.98;0.65;;;16.20;60.60;;;;;;5075025;28;20028;-39
2022/07/27 21:57:16;;;;;;;6.70;0.88;;;16.20;60.60;;;;;;5075036;28;20027;-38
2022/07/27 21:59:42;;;;;;;3.53;1.10;;;16.10;60.60;;;;;;5075031;28;20433;-38
2022/07/27 22:02:07;;;;;;;3.30;1.13;;;16.10;60.50;;;;;;5075025;28;20036;-38
2022/07/27 22:04:34;;;;;;;2.70;0.90;;;16.00;60.50;;;;;;5074620;28;20032;-38
2022/07/27 22:07:00;;;;;;;1.52;1.02;;;16.00;60.60;;;;;;5074958;28;20391;-40
2022/07/27 22:09:26;;;;;;;1.05;0.70;;;16.00;60.50;;;;;;5074743;28;20032;-40
2022/07/27 22:11:52;;;;;;;5.25;1.30;;;15.90;60.40;;;;;;5074059;28;20055;-39
2022/07/27 22:14:17;;;;;;;5.03;1.20;;;15.90;60.50;;;;;;5074774;28;20040;-38
2022/07/27 22:16:43;;;;;;;8.00;1.15;;;15.80;60.50;;;;;;5073738;28;20457;-39
2022/07/27 22:19:09;;;;;;;3.75;1.80;;;15.80;60.60;;;;;;5074120;28;20103;-39
2022/07/27 22:21:34;;;;;;;1.30;0.70;;;15.80;60.60;;;;;;5074191;28;20515;-38
2022/07/27 22:24:00;;;;;;;2.28;0.70;;;15.80;60.60;;;;;;5074493;28;20024;-38
2022/07/27 22:26:26;;;;;;;3.05;1.00;;;15.80;60.80;;;;;;5074326;28;20024;-42
2022/07/27 22:28:52;;;;;;;1.25;0.57;;;15.80;60.90;;;;;;5074105;28;20025;-38
2022/07/27 22:31:18;;;;;;;3.38;0.80;;;15.70;60.80;;;;;;5073842;28;20020;-38
2022/07/27 22:33:44;;;;;;;1.83;1.13;;;15.70;61.00;;;;;;5074059;28;20020;-38
2022/07/27 22:36:10;;;;;;;2.03;1.00;;;15.70;61.10;;;;;;5072595;28;20020;-38
2022/07/27 22:38:36;;;;;;;3.30;0.75;;;15.60;61.20;;;;;;5073832;28;20086;-38
2022/07/27 22:41:02;;;;;;;3.67;1.10;;;15.60;61.30;;;;;;5074020;28;20029;-38
2022/07/27 22:43:28;;;;;;;5.03;1.50;;;15.50;61.40;;;;;;5074003;28;20029;-38
2022/07/27 22:45:54;;;;;;;2.35;0.75;;;15.50;61.40;;;;;;5073698;28;20059;-38
2022/07/27 22:48:20;;;;;;;7.82;1.73;;;15.50;61.50;;;;;;5073407;28;20076;-39
2022/07/27 22:50:46;;;;;;;4.72;1.15;;;15.50;61.60;;;;;;5072838;28;20028;-38
2022/07/27 22:53:13;;;;;;;2.83;1.42;;;15.40;61.70;;;;;;5073550;28;20067;-39
2022/07/27 22:55:39;;;;;;;6.75;0.80;;;15.40;61.70;;;;;;5073583;28;20021;-38
2022/07/27 22:58:05;;;;;;;4.97;0.75;;;15.40;61.70;;;;;;5073513;28;20020;-38
2022/07/27 23:00:31;;;;;;;1.42;0.80;;;15.30;61.90;;;;;;5073448;28;20021;-38
2022/07/27 23:02:57;;;;;;;1.55;0.75;;;15.30;61.90;;;;;;5073368;28;20050;-38
2022/07/27 23:05:23;;;;;;;2.47;0.80;;;15.30;62.00;;;;;;5073288;28;20031;-38
2022/07/27 23:07:49;;;;;;;1.27;0.82;;;15.30;62.30;;;;;;5073380;28;20024;-38
2022/07/27 23:12:59;;;;;;;3.92;0.85;;;15.30;62.40;;;;;;5074043;28;20057;-42
2022/07/27 23:15:25;;;;;;;1.73;0.90;;;15.30;62.50;;;;;;5073407;28;20099;-38
2022/07/27 23:17:50;;;;;;;0.82;0.82;;;15.30;62.50;;;;;;5073394;28;20029;-38
2022/07/27 23:20:16;;;;;;;1.58;0.70;;;15.20;62.70;;;;;;5073122;28;20071;-38
2022/07/27 23:22:43;;;;;;;0.73;0.70;;;15.20;62.80;;;;;;5073076;28;20036;-37
2022/07/27 23:25:09;;;;;;;0.95;0.70;;;15.20;63.10;;;;;;5073266;28;20024;-38
2022/07/27 23:27:35;;;;;;;4.60;1.17;;;15.10;63.20;;;;;;5073453;28;20043;-38
2022/07/27 23:30:01;;;;;;;3.10;1.05;;;15.10;63.40;;;;;;5073154;28;20081;-38
2022/07/27 23:32:26;;;;;;;7.40;1.20;;;15.10;63.50;;;;;;5073050;28;20381;-38
2022/07/27 23:34:52;;;;;;;2.25;0.73;;;15.00;63.70;;;;;;5073206;28;20027;-37
2022/07/27 23:37:17;;;;;;;5.70;0.95;;;15.00;63.80;;;;;;5072997;28;20024;-39
2022/07/27 23:39:43;;;;;;;5.05;0.95;;;15.00;63.90;;;;;;5072848;28;20032;-38
2022/07/27 23:42:09;;;;;;;4.32;0.80;;;15.00;63.90;;;;;;5073058;28;20111;-38
2022/07/27 23:44:34;;;;;;;8.40;2.63;;;15.10;64.00;;;;;;5073010;28;20063;-38
2022/07/27 23:47:00;;;;;;;0.90;0.70;;;15.00;64.00;;;;;;5072846;28;20050;-38
2022/07/27 23:49:26;;;;;;;2.20;1.02;;;15.00;64.10;;;;;;5072649;28;20086;-38
2022/07/27 23:51:51;;;;;;;1.65;0.95;;;15.00;64.30;;;;;;5072849;28;20016;-38
2022/07/27 23:54:17;;;;;;;6.88;1.77;;;15.00;64.30;;;;;;5071504;28;20067;-38
2022/07/27 23:56:42;;;;;;;1.63;0.82;;;14.90;64.60;;;;;;5072752;28;20028;-38
2022/07/27 23:59:08;;;;;;;6.82;1.27;;;14.90;64.80;;;;;;5072966;28;20048;-38
